sensor_id;sensor_type;location;lat;lon;timestamp;temperature;humidity
12223;DHT22;6174;49.058;8.524;2023-05-14T06:02:00;12.40;99.90
12223;DHT22;6174;49.058;8.524;2023-05-14T06:04:27;12.50;99.90
12223;DHT22;6174;49.058;8.524;2023-05-14T06:06:54;13.10;99.90
12223;DHT22;6174;49.058;8.524;2023-05-14T06:09:21;12.70;99.90
12223;DHT22;6174;49.058;8.524;2023-05-14T06:11:47;12.80;99.90
12223;DHT22;6174;49.058;8.524;2023-05-14T06:14:14;12.80;99.90
12223;DHT22;6174;49.058;8.524;2023-05-14T06:16:41;13.20;99.90
12223;DHT22;6174;49.058;8.524;2023-05-14T06:19:09;13.40;99.90
12223;DHT22;6174;49.058;8.524;2023-05-14T06:21:36;13.80;99.90
12223;DHT22;6174;49.058;8.524;2023-05-14T06:24:03;14.10;99.90
12223;DHT22;6174;49.058;8.524;2023-05-14T06:26:30;14.40;99.90
12223;DHT22;6174;49.058;8.524;2023-05-14T06:28:57;14.50;99.90
12223;DHT22;6174;49.058;8.524;2023-05-14T06:31:55;15.00;99.90
12223;DHT22;6174;49.058;8.524;2023-05-14T06:41:16;16.00;99.90
12223;DHT22;6174;49.058;8.524;2023-05-14T06:44:00;16.70;99.90
12223;DHT22;6174;49.058;8.524;2023-05-14T12:27:36;18.30;95.60
12223;DHT22;6174;49.058;8.524;2023-05-14T12:37:19;18.20;96.80
12223;DHT22;6174;49.058;8.524;2023-05-14T12:44:38;18.50;94.30
12223;DHT22;6174;49.058;8.524;2023-05-14T12:47:34;18.80;95.20
12223;DHT22;6174;49.058;8.524;2023-05-14T12:50:32;18.70;95.80
12223;DHT22;6174;49.058;8.524;2023-05-14T12:53:00;18.70;95.50
12223;DHT22;6174;49.058;8.524;2023-05-14T12:55:28;18.80;95.60
12223;DHT22;6174;49.058;8.524;2023-05-14T12:57:55;19.00;95.40
12223;DHT22;6174;49.058;8.524;2023-05-14T13:00:23;19.10;94.20
12223;DHT22;6174;49.058;8.524;2023-05-14T13:02:51;19.10;95.70
12223;DHT22;6174;49.058;8.524;2023-05-14T13:05:18;19.30;95.60
12223;DHT22;6174;49.058;8.524;2023-05-14T13:07:45;19.30;95.00
12223;DHT22;6174;49.058;8.524;2023-05-14T13:10:12;19.20;95.70
12223;DHT22;6174;49.058;8.524;2023-05-14T13:12:39;19.40;95.20
12223;DHT22;6174;49.058;8.524;2023-05-14T13:15:06;19.50;95.00
12223;DHT22;6174;49.058;8.524;2023-05-14T13:17:35;19.30;95.20
12223;DHT22;6174;49.058;8.524;2023-05-14T13:20:02;18.80;94.60
12223;DHT22;6174;49.058;8.524;2023-05-14T13:22:30;19.00;94.80
12223;DHT22;6174;49.058;8.524;2023-05-14T13:24:57;19.00;94.00
12223;DHT22;6174;49.058;8.524;2023-05-14T13:27:24;19.00;93.80
12223;DHT22;6174;49.058;8.524;2023-05-14T13:29:50;19.20;93.50
12223;DHT22;6174;49.058;8.524;2023-05-14T13:32:17;19.20;94.50
12223;DHT22;6174;49.058;8.524;2023-05-14T13:34:45;19.30;93.20
12223;DHT22;6174;49.058;8.524;2023-05-14T13:37:12;19.50;94.60
12223;DHT22;6174;49.058;8.524;2023-05-14T13:39:41;19.60;93.60
12223;DHT22;6174;49.058;8.524;2023-05-14T13:42:11;19.50;93.30
12223;DHT22;6174;49.058;8.524;2023-05-14T13:44:38;19.50;93.40
12223;DHT22;6174;49.058;8.524;2023-05-14T13:47:05;19.40;93.00
12223;DHT22;6174;49.058;8.524;2023-05-14T13:57:40;19.10;92.70
12223;DHT22;6174;49.058;8.524;2023-05-14T14:11:46;19.40;91.50
12223;DHT22;6174;49.058;8.524;2023-05-14T14:18:06;19.60;91.80
12223;DHT22;6174;49.058;8.524;2023-05-14T14:20:49;19.80;91.20
12223;DHT22;6174;49.058;8.524;2023-05-14T14:23:30;19.80;87.80
12223;DHT22;6174;49.058;8.524;2023-05-14T14:26:11;19.90;87.40
12223;DHT22;6174;49.058;8.524;2023-05-14T14:28:48;19.90;89.50
12223;DHT22;6174;49.058;8.524;2023-05-14T14:31:16;20.00;89.50
12223;DHT22;6174;49.058;8.524;2023-05-14T14:33:51;20.20;90.00
12223;DHT22;6174;49.058;8.524;2023-05-14T14:36:25;19.90;90.30
12223;DHT22;6174;49.058;8.524;2023-05-14T14:38:53;19.90;91.10
12223;DHT22;6174;49.058;8.524;2023-05-14T14:41:20;19.90;91.50
12223;DHT22;6174;49.058;8.524;2023-05-14T14:43:50;20.10;91.50
12223;DHT22;6174;49.058;8.524;2023-05-14T14:46:52;19.80;90.80
12223;DHT22;6174;49.058;8.524;2023-05-14T14:49:35;19.50;90.60
12223;DHT22;6174;49.058;8.524;2023-05-14T14:52:18;19.90;91.10
12223;DHT22;6174;49.058;8.524;2023-05-14T14:55:03;19.40;91.20
12223;DHT22;6174;49.058;8.524;2023-05-14T14:57:42;19.40;91.70
12223;DHT22;6174;49.058;8.524;2023-05-14T15:00:33;19.30;90.90
12223;DHT22;6174;49.058;8.524;2023-05-14T15:03:10;19.20;90.60
12223;DHT22;6174;49.058;8.524;2023-05-14T15:09:13;19.20;92.00
12223;DHT22;6174;49.058;8.524;2023-05-14T15:11:48;19.20;91.80
12223;DHT22;6174;49.058;8.524;2023-05-14T15:14:19;19.70;92.70
12223;DHT22;6174;49.058;8.524;2023-05-14T15:16:49;19.30;91.10
12223;DHT22;6174;49.058;8.524;2023-05-14T15:19:23;19.40;90.90
12223;DHT22;6174;49.058;8.524;2023-05-14T15:22:03;19.30;90.90
12223;DHT22;6174;49.058;8.524;2023-05-14T15:24:54;19.30;90.90
12223;DHT22;6174;49.058;8.524;2023-05-14T15:27:22;19.50;91.30
12223;DHT22;6174;49.058;8.524;2023-05-14T15:29:49;19.60;92.10
12223;DHT22;6174;49.058;8.524;2023-05-14T15:32:16;19.40;92.00
12223;DHT22;6174;49.058;8.524;2023-05-14T15:41:29;19.10;91.50
12223;DHT22;6174;49.058;8.524;2023-05-14T15:44:11;19.20;92.40
12223;DHT22;6174;49.058;8.524;2023-05-14T15:46:40;18.90;91.50
12223;DHT22;6174;49.058;8.524;2023-05-14T16:03:59;18.60;93.80
12223;DHT22;6174;49.058;8.524;2023-05-14T16:06:26;18.70;93.50
12223;DHT22;6174;49.058;8.524;2023-05-14T16:09:03;18.80;92.90
12223;DHT22;6174;49.058;8.524;2023-05-14T16:11:50;18.80;93.00
12223;DHT22;6174;49.058;8.524;2023-05-14T16:14:22;18.50;91.30
12223;DHT22;6174;49.058;8.524;2023-05-14T16:17:03;19.50;92.70
12223;DHT22;6174;49.058;8.524;2023-05-14T16:19:34;18.80;93.20
12223;DHT22;6174;49.058;8.524;2023-05-14T16:22:01;18.80;92.90
12223;DHT22;6174;49.058;8.524;2023-05-14T16:24:28;18.70;92.90
12223;DHT22;6174;49.058;8.524;2023-05-14T16:26:55;18.70;92.30
12223;DHT22;6174;49.058;8.524;2023-05-14T16:29:22;18.60;92.40
12223;DHT22;6174;49.058;8.524;2023-05-14T16:31:51;18.50;92.10
12223;DHT22;6174;49.058;8.524;2023-05-14T16:34:58;18.30;92.40
12223;DHT22;6174;49.058;8.524;2023-05-14T16:37:27;18.30;93.30
12223;DHT22;6174;49.058;8.524;2023-05-14T16:41:43;18.70;93.70
12223;DHT22;6174;49.058;8.524;2023-05-14T16:43:19;18.20;93.90
12223;DHT22;6174;49.058;8.524;2023-05-14T16:45:48;18.30;93.90
12223;DHT22;6174;49.058;8.524;2023-05-14T16:48:15;18.80;94.60
12223;DHT22;6174;49.058;8.524;2023-05-14T16:50:43;18.10;94.80
12223;DHT22;6174;49.058;8.524;2023-05-14T16:53:11;18.20;93.00
12223;DHT22;6174;49.058;8.524;2023-05-14T16:55:38;18.20;93.30
12223;DHT22;6174;49.058;8.524;2023-05-14T16:58:05;18.60;94.10
12223;DHT22;6174;49.058;8.524;2023-05-14T17:00:32;18.30;94.30
12223;DHT22;6174;49.058;8.524;2023-05-14T17:02:58;18.30;93.90
12223;DHT22;6174;49.058;8.524;2023-05-14T17:05:26;19.10;93.80
12223;DHT22;6174;49.058;8.524;2023-05-14T17:07:57;18.40;93.10
12223;DHT22;6174;49.058;8.524;2023-05-14T17:10:25;18.40;93.50
12223;DHT22;6174;49.058;8.524;2023-05-14T17:12:52;18.40;93.50
12223;DHT22;6174;49.058;8.524;2023-05-14T17:15:19;18.40;93.70
12223;DHT22;6174;49.058;8.524;2023-05-14T17:17:46;18.30;94.10
12223;DHT22;6174;49.058;8.524;2023-05-14T17:20:13;18.30;93.10
12223;DHT22;6174;49.058;8.524;2023-05-14T17:22:40;18.60;92.60
12223;DHT22;6174;49.058;8.524;2023-05-14T17:25:09;18.60;91.70
12223;DHT22;6174;49.058;8.524;2023-05-14T17:27:36;18.90;92.70
12223;DHT22;6174;49.058;8.524;2023-05-14T17:30:03;18.60;92.50
12223;DHT22;6174;49.058;8.524;2023-05-14T17:32:32;18.60;92.20
12223;DHT22;6174;49.058;8.524;2023-05-14T17:34:59;18.70;92.10
12223;DHT22;6174;49.058;8.524;2023-05-14T17:37:26;18.80;92.20
12223;DHT22;6174;49.058;8.524;2023-05-14T17:39:53;19.00;91.20
12223;DHT22;6174;49.058;8.524;2023-05-14T17:42:21;19.10;90.90
12223;DHT22;6174;49.058;8.524;2023-05-14T17:44:48;19.20;89.90
12223;DHT22;6174;49.058;8.524;2023-05-14T17:47:15;19.30;91.10
12223;DHT22;6174;49.058;8.524;2023-05-14T17:49:45;19.60;92.20
12223;DHT22;6174;49.058;8.524;2023-05-14T17:52:12;19.30;91.90
12223;DHT22;6174;49.058;8.524;2023-05-14T17:54:39;19.30;92.00
12223;DHT22;6174;49.058;8.524;2023-05-14T17:57:06;19.40;91.40
12223;DHT22;6174;49.058;8.524;2023-05-14T17:59:34;19.30;93.50
12223;DHT22;6174;49.058;8.524;2023-05-14T18:02:01;19.00;94.70
12223;DHT22;6174;49.058;8.524;2023-05-14T18:04:30;18.60;96.30
12223;DHT22;6174;49.058;8.524;2023-05-14T18:06:59;18.30;96.10
12223;DHT22;6174;49.058;8.524;2023-05-14T18:09:26;18.10;98.90
12223;DHT22;6174;49.058;8.524;2023-05-14T18:11:52;17.80;97.70
12223;DHT22;6174;49.058;8.524;2023-05-14T18:14:19;17.60;96.30
12223;DHT22;6174;49.058;8.524;2023-05-14T18:16:47;17.50;94.40
12223;DHT22;6174;49.058;8.524;2023-05-14T18:19:14;17.50;96.50
12223;DHT22;6174;49.058;8.524;2023-05-14T18:21:41;17.40;97.10
12223;DHT22;6174;49.058;8.524;2023-05-14T18:24:11;17.30;96.90
12223;DHT22;6174;49.058;8.524;2023-05-14T18:26:38;17.30;94.10
12223;DHT22;6174;49.058;8.524;2023-05-14T18:29:05;17.10;95.40
12223;DHT22;6174;49.058;8.524;2023-05-14T18:31:31;17.10;97.20
12223;DHT22;6174;49.058;8.524;2023-05-14T18:34:00;17.00;97.00
12223;DHT22;6174;49.058;8.524;2023-05-14T18:36:26;17.00;96.50
12223;DHT22;6174;49.058;8.524;2023-05-14T18:38:53;16.90;95.30
12223;DHT22;6174;49.058;8.524;2023-05-14T18:41:20;17.00;95.50
12223;DHT22;6174;49.058;8.524;2023-05-14T18:43:48;16.90;95.00
12223;DHT22;6174;49.058;8.524;2023-05-14T18:46:14;16.80;95.00
12223;DHT22;6174;49.058;8.524;2023-05-14T18:48:42;16.70;93.90
12223;DHT22;6174;49.058;8.524;2023-05-14T18:51:10;16.90;95.40
12223;DHT22;6174;49.058;8.524;2023-05-14T18:53:37;16.60;95.60
12223;DHT22;6174;49.058;8.524;2023-05-14T18:56:04;16.90;96.00
12223;DHT22;6174;49.058;8.524;2023-05-14T18:58:31;16.60;95.70
12223;DHT22;6174;49.058;8.524;2023-05-14T19:00:58;16.70;97.70
12223;DHT22;6174;49.058;8.524;2023-05-14T19:03:25;16.40;98.10
12223;DHT22;6174;49.058;8.524;2023-05-14T19:05:52;16.60;98.30
12223;DHT22;6174;49.058;8.524;2023-05-14T19:08:20;16.20;97.60
12223;DHT22;6174;49.058;8.524;2023-05-14T19:10:47;16.30;97.90
12223;DHT22;6174;49.058;8.524;2023-05-14T19:13:14;16.50;98.60
12223;DHT22;6174;49.058;8.524;2023-05-14T19:15:41;16.40;98.90
12223;DHT22;6174;49.058;8.524;2023-05-14T19:18:08;16.10;99.90
12223;DHT22;6174;49.058;8.524;2023-05-14T19:20:37;15.90;99.90
12223;DHT22;6174;49.058;8.524;2023-05-14T19:23:04;16.20;99.90
12223;DHT22;6174;49.058;8.524;2023-05-14T19:25:32;15.60;99.90
12223;DHT22;6174;49.058;8.524;2023-05-14T19:28:00;15.50;99.90
12223;DHT22;6174;49.058;8.524;2023-05-14T19:30:28;15.40;99.90
12223;DHT22;6174;49.058;8.524;2023-05-14T19:32:54;15.40;99.90
12223;DHT22;6174;49.058;8.524;2023-05-14T19:35:21;15.40;99.90
12223;DHT22;6174;49.058;8.524;2023-05-14T19:37:48;15.30;99.90
12223;DHT22;6174;49.058;8.524;2023-05-14T19:40:15;15.30;99.90
12223;DHT22;6174;49.058;8.524;2023-05-14T19:42:43;15.20;99.90
12223;DHT22;6174;49.058;8.524;2023-05-14T19:45:10;15.20;99.90
12223;DHT22;6174;49.058;8.524;2023-05-14T19:47:37;15.20;99.90
12223;DHT22;6174;49.058;8.524;2023-05-14T19:50:04;15.10;99.90
12223;DHT22;6174;49.058;8.524;2023-05-14T19:52:32;15.00;99.90
12223;DHT22;6174;49.058;8.524;2023-05-14T19:54:59;14.90;99.90
12223;DHT22;6174;49.058;8.524;2023-05-14T19:57:26;14.80;99.90
12223;DHT22;6174;49.058;8.524;2023-05-14T19:59:55;14.60;99.90
12223;DHT22;6174;49.058;8.524;2023-05-14T20:02:21;14.60;99.90
12223;DHT22;6174;49.058;8.524;2023-05-14T20:04:48;14.60;99.90
12223;DHT22;6174;49.058;8.524;2023-05-14T20:07:16;14.50;99.90
12223;DHT22;6174;49.058;8.524;2023-05-14T20:09:42;14.60;99.90
12223;DHT22;6174;49.058;8.524;2023-05-14T20:12:10;14.60;99.90
12223;DHT22;6174;49.058;8.524;2023-05-14T20:14:38;14.60;99.90
12223;DHT22;6174;49.058;8.524;2023-05-14T20:17:06;14.50;99.90
12223;DHT22;6174;49.058;8.524;2023-05-14T20:19:33;14.50;99.90
12223;DHT22;6174;49.058;8.524;2023-05-14T20:22:00;14.50;99.90
12223;DHT22;6174;49.058;8.524;2023-05-14T20:24:27;14.50;99.90
12223;DHT22;6174;49.058;8.524;2023-05-14T20:26:54;14.50;99.90
12223;DHT22;6174;49.058;8.524;2023-05-14T20:29:21;14.60;99.90
12223;DHT22;6174;49.058;8.524;2023-05-14T20:31:47;14.50;99.90
12223;DHT22;6174;49.058;8.524;2023-05-14T20:34:15;14.50;99.90
12223;DHT22;6174;49.058;8.524;2023-05-14T20:36:43;14.40;99.90
12223;DHT22;6174;49.058;8.524;2023-05-14T20:39:10;14.40;99.90
12223;DHT22;6174;49.058;8.524;2023-05-14T20:41:37;14.30;99.90
12223;DHT22;6174;49.058;8.524;2023-05-14T20:44:04;14.30;99.90
12223;DHT22;6174;49.058;8.524;2023-05-14T20:46:30;14.10;99.90
12223;DHT22;6174;49.058;8.524;2023-05-14T20:48:59;14.10;99.90
12223;DHT22;6174;49.058;8.524;2023-05-14T20:51:28;14.00;99.90
12223;DHT22;6174;49.058;8.524;2023-05-14T20:53:54;13.90;99.90
12223;DHT22;6174;49.058;8.524;2023-05-14T20:56:21;13.90;99.90
12223;DHT22;6174;49.058;8.524;2023-05-14T20:58:48;13.90;99.90
12223;DHT22;6174;49.058;8.524;2023-05-14T21:01:15;13.80;99.90
12223;DHT22;6174;49.058;8.524;2023-05-14T21:03:41;13.80;99.90
12223;DHT22;6174;49.058;8.524;2023-05-14T21:06:08;13.80;99.90
12223;DHT22;6174;49.058;8.524;2023-05-14T21:08:36;13.80;99.90
12223;DHT22;6174;49.058;8.524;2023-05-14T21:11:04;13.80;99.90
12223;DHT22;6174;49.058;8.524;2023-05-14T21:13:31;13.70;99.90
12223;DHT22;6174;49.058;8.524;2023-05-14T21:15:58;13.70;99.90
12223;DHT22;6174;49.058;8.524;2023-05-14T21:18:25;13.70;99.90
12223;DHT22;6174;49.058;8.524;2023-05-14T21:20:55;13.70;99.90
12223;DHT22;6174;49.058;8.524;2023-05-14T21:23:21;13.70;99.90
12223;DHT22;6174;49.058;8.524;2023-05-14T21:25:49;13.70;99.90
12223;DHT22;6174;49.058;8.524;2023-05-14T21:28:19;13.80;99.90
12223;DHT22;6174;49.058;8.524;2023-05-14T21:30:46;13.80;99.90
12223;DHT22;6174;49.058;8.524;2023-05-14T21:33:12;13.80;99.90
12223;DHT22;6174;49.058;8.524;2023-05-14T21:35:40;13.80;99.90
12223;DHT22;6174;49.058;8.524;2023-05-14T21:38:07;13.80;99.90
12223;DHT22;6174;49.058;8.524;2023-05-14T21:40:34;13.80;99.90
12223;DHT22;6174;49.058;8.524;2023-05-14T21:43:02;13.80;99.90
12223;DHT22;6174;49.058;8.524;2023-05-14T21:45:29;13.90;99.90
12223;DHT22;6174;49.058;8.524;2023-05-14T21:47:56;13.90;99.90
12223;DHT22;6174;49.058;8.524;2023-05-14T21:50:22;13.80;99.90
12223;DHT22;6174;49.058;8.524;2023-05-14T21:52:49;13.80;99.90
12223;DHT22;6174;49.058;8.524;2023-05-14T21:55:16;13.80;99.90
12223;DHT22;6174;49.058;8.524;2023-05-14T21:57:43;13.90;99.90
12223;DHT22;6174;49.058;8.524;2023-05-14T22:00:12;13.90;99.90
12223;DHT22;6174;49.058;8.524;2023-05-14T22:02:42;13.80;99.90
12223;DHT22;6174;49.058;8.524;2023-05-14T22:05:09;13.80;99.90
12223;DHT22;6174;49.058;8.524;2023-05-14T22:07:36;13.80;99.90
12223;DHT22;6174;49.058;8.524;2023-05-14T22:10:03;13.90;99.90
12223;DHT22;6174;49.058;8.524;2023-05-14T22:12:30;13.90;99.90
12223;DHT22;6174;49.058;8.524;2023-05-14T22:14:57;13.80;99.90
12223;DHT22;6174;49.058;8.524;2023-05-14T22:17:25;13.70;99.90
12223;DHT22;6174;49.058;8.524;2023-05-14T22:19:53;13.70;99.90
12223;DHT22;6174;49.058;8.524;2023-05-14T22:22:20;13.70;99.90
12223;DHT22;6174;49.058;8.524;2023-05-14T22:24:46;13.70;99.90
12223;DHT22;6174;49.058;8.524;2023-05-14T22:27:13;13.70;99.90
12223;DHT22;6174;49.058;8.524;2023-05-14T22:29:40;13.70;99.90
